sensor_id;sensor_type;location;lat;lon;timestamp;P1;durP1;ratioP1;P2;durP2;ratioP2
7057;SDS011;3570;43.080;25.628;2023-08-20T00:02:01;10.40;;;8.17;;
7057;SDS011;3570;43.080;25.628;2023-08-20T00:04:46;9.30;;;6.63;;
7057;SDS011;3570;43.080;25.628;2023-08-20T00:07:32;9.33;;;7.17;;
7057;SDS011;3570;43.080;25.628;2023-08-20T00:10:16;8.87;;;6.90;;
7057;SDS011;3570;43.080;25.628;2023-08-20T00:13:01;8.67;;;6.90;;
7057;SDS011;3570;43.080;25.628;2023-08-20T00:15:45;8.63;;;6.83;;
7057;SDS011;3570;43.080;25.628;2023-08-20T00:18:29;9.17;;;6.87;;
7057;SDS011;3570;43.080;25.628;2023-08-20T00:21:14;12.50;;;7.90;;
7057;SDS011;3570;43.080;25.628;2023-08-20T00:23:58;10.53;;;8.00;;
7057;SDS011;3570;43.080;25.628;2023-08-20T00:26:43;9.80;;;7.27;;
7057;SDS011;3570;43.080;25.628;2023-08-20T00:29:27;11.27;;;7.63;;
7057;SDS011;3570;43.080;25.628;2023-08-20T00:32:12;9.27;;;7.07;;
7057;SDS011;3570;43.080;25.628;2023-08-20T00:34:56;10.40;;;7.40;;
7057;SDS011;3570;43.080;25.628;2023-08-20T00:37:40;9.07;;;7.63;;
7057;SDS011;3570;43.080;25.628;2023-08-20T00:40:24;11.77;;;7.50;;
7057;SDS011;3570;43.080;25.628;2023-08-20T00:43:08;11.87;;;7.90;;
7057;SDS011;3570;43.080;25.628;2023-08-20T00:45:52;11.30;;;7.60;;
7057;SDS011;3570;43.080;25.628;2023-08-20T00:48:36;9.40;;;8.30;;
7057;SDS011;3570;43.080;25.628;2023-08-20T00:51:19;9.60;;;8.10;;
7057;SDS011;3570;43.080;25.628;2023-08-20T00:54:04;10.70;;;7.70;;
7057;SDS011;3570;43.080;25.628;2023-08-20T00:56:49;11.33;;;8.03;;
7057;SDS011;3570;43.080;25.628;2023-08-20T00:59:34;13.40;;;8.43;;
7057;SDS011;3570;43.080;25.628;2023-08-20T01:02:18;15.03;;;9.87;;
7057;SDS011;3570;43.080;25.628;2023-08-20T01:05:02;17.30;;;11.03;;
7057;SDS011;3570;43.080;25.628;2023-08-20T01:07:58;20.60;;;12.10;;
7057;SDS011;3570;43.080;25.628;2023-08-20T01:10:51;19.00;;;11.67;;
7057;SDS011;3570;43.080;25.628;2023-08-20T01:13:40;26.00;;;12.93;;
7057;SDS011;3570;43.080;25.628;2023-08-20T01:16:24;21.53;;;13.13;;
7057;SDS011;3570;43.080;25.628;2023-08-20T01:19:10;29.53;;;14.73;;
7057;SDS011;3570;43.080;25.628;2023-08-20T01:30:42;13.30;;;9.10;;
7057;SDS011;3570;43.080;25.628;2023-08-20T01:33:27;14.50;;;9.67;;
7057;SDS011;3570;43.080;25.628;2023-08-20T01:36:12;23.27;;;11.93;;
7057;SDS011;3570;43.080;25.628;2023-08-20T01:38:56;18.30;;;9.80;;
7057;SDS011;3570;43.080;25.628;2023-08-20T01:41:40;16.13;;;9.33;;
7057;SDS011;3570;43.080;25.628;2023-08-20T01:44:24;11.70;;;8.50;;
7057;SDS011;3570;43.080;25.628;2023-08-20T01:47:08;13.60;;;9.10;;
7057;SDS011;3570;43.080;25.628;2023-08-20T01:49:52;15.63;;;9.67;;
7057;SDS011;3570;43.080;25.628;2023-08-20T01:52:36;14.93;;;9.03;;
7057;SDS011;3570;43.080;25.628;2023-08-20T01:55:20;15.20;;;9.00;;
7057;SDS011;3570;43.080;25.628;2023-08-20T01:58:04;12.07;;;8.87;;
7057;SDS011;3570;43.080;25.628;2023-08-20T02:00:48;11.93;;;9.13;;
7057;SDS011;3570;43.080;25.628;2023-08-20T02:03:32;10.20;;;8.03;;
7057;SDS011;3570;43.080;25.628;2023-08-20T02:06:16;9.70;;;8.10;;
7057;SDS011;3570;43.080;25.628;2023-08-20T02:09:00;10.57;;;7.83;;
7057;SDS011;3570;43.080;25.628;2023-08-20T02:11:44;10.50;;;8.97;;
7057;SDS011;3570;43.080;25.628;2023-08-20T02:14:28;11.63;;;8.37;;
7057;SDS011;3570;43.080;25.628;2023-08-20T02:17:13;14.23;;;7.93;;
7057;SDS011;3570;43.080;25.628;2023-08-20T02:19:57;10.60;;;7.77;;
7057;SDS011;3570;43.080;25.628;2023-08-20T02:22:41;11.97;;;7.80;;
7057;SDS011;3570;43.080;25.628;2023-08-20T02:25:25;9.93;;;7.47;;
7057;SDS011;3570;43.080;25.628;2023-08-20T02:28:10;12.97;;;8.13;;
7057;SDS011;3570;43.080;25.628;2023-08-20T02:30:54;12.30;;;8.43;;
7057;SDS011;3570;43.080;25.628;2023-08-20T02:33:38;12.73;;;8.37;;
7057;SDS011;3570;43.080;25.628;2023-08-20T02:36:22;9.63;;;7.50;;
7057;SDS011;3570;43.080;25.628;2023-08-20T02:39:07;10.03;;;7.93;;
7057;SDS011;3570;43.080;25.628;2023-08-20T02:41:51;13.57;;;9.30;;
7057;SDS011;3570;43.080;25.628;2023-08-20T02:44:35;11.87;;;8.60;;
7057;SDS011;3570;43.080;25.628;2023-08-20T02:47:19;12.90;;;8.00;;
7057;SDS011;3570;43.080;25.628;2023-08-20T02:50:03;14.13;;;8.13;;
7057;SDS011;3570;43.080;25.628;2023-08-20T02:52:47;11.23;;;7.73;;
7057;SDS011;3570;43.080;25.628;2023-08-20T02:55:32;11.03;;;7.90;;
7057;SDS011;3570;43.080;25.628;2023-08-20T02:58:16;9.27;;;7.27;;
7057;SDS011;3570;43.080;25.628;2023-08-20T03:01:00;10.50;;;7.63;;
7057;SDS011;3570;43.080;25.628;2023-08-20T03:03:44;9.73;;;6.90;;
7057;SDS011;3570;43.080;25.628;2023-08-20T03:06:28;9.33;;;7.23;;
7057;SDS011;3570;43.080;25.628;2023-08-20T03:09:12;10.77;;;7.30;;
7057;SDS011;3570;43.080;25.628;2023-08-20T03:11:56;9.00;;;7.47;;
7057;SDS011;3570;43.080;25.628;2023-08-20T03:14:40;10.73;;;7.63;;
7057;SDS011;3570;43.080;25.628;2023-08-20T03:17:24;16.17;;;7.93;;
7057;SDS011;3570;43.080;25.628;2023-08-20T03:20:08;12.67;;;7.30;;
7057;SDS011;3570;43.080;25.628;2023-08-20T03:22:53;9.00;;;6.57;;
7057;SDS011;3570;43.080;25.628;2023-08-20T03:25:38;8.70;;;7.20;;
7057;SDS011;3570;43.080;25.628;2023-08-20T03:28:22;9.10;;;7.13;;
7057;SDS011;3570;43.080;25.628;2023-08-20T03:31:06;11.77;;;7.67;;
7057;SDS011;3570;43.080;25.628;2023-08-20T03:33:50;10.50;;;6.70;;
7057;SDS011;3570;43.080;25.628;2023-08-20T03:36:34;9.33;;;6.27;;
7057;SDS011;3570;43.080;25.628;2023-08-20T03:39:18;13.83;;;8.47;;
7057;SDS011;3570;43.080;25.628;2023-08-20T03:42:03;11.40;;;7.93;;
7057;SDS011;3570;43.080;25.628;2023-08-20T03:44:47;11.77;;;8.17;;
7057;SDS011;3570;43.080;25.628;2023-08-20T03:47:31;12.23;;;8.00;;
7057;SDS011;3570;43.080;25.628;2023-08-20T03:50:15;11.07;;;7.77;;
7057;SDS011;3570;43.080;25.628;2023-08-20T03:52:59;13.67;;;8.73;;
7057;SDS011;3570;43.080;25.628;2023-08-20T03:55:47;12.13;;;8.33;;
7057;SDS011;3570;43.080;25.628;2023-08-20T03:58:33;15.63;;;9.80;;
7057;SDS011;3570;43.080;25.628;2023-08-20T04:01:17;16.30;;;8.80;;
7057;SDS011;3570;43.080;25.628;2023-08-20T04:04:01;12.07;;;7.83;;
7057;SDS011;3570;43.080;25.628;2023-08-20T04:06:47;12.03;;;7.33;;
7057;SDS011;3570;43.080;25.628;2023-08-20T04:09:32;16.23;;;8.17;;
7057;SDS011;3570;43.080;25.628;2023-08-20T04:12:17;16.37;;;8.67;;
7057;SDS011;3570;43.080;25.628;2023-08-20T04:15:01;11.47;;;7.00;;
7057;SDS011;3570;43.080;25.628;2023-08-20T04:17:46;10.77;;;7.73;;
7057;SDS011;3570;43.080;25.628;2023-08-20T04:20:30;11.50;;;7.93;;
7057;SDS011;3570;43.080;25.628;2023-08-20T04:23:15;13.37;;;8.03;;
7057;SDS011;3570;43.080;25.628;2023-08-20T04:25:59;13.37;;;8.40;;
7057;SDS011;3570;43.080;25.628;2023-08-20T04:28:43;17.27;;;9.70;;
7057;SDS011;3570;43.080;25.628;2023-08-20T04:31:27;13.77;;;8.13;;
7057;SDS011;3570;43.080;25.628;2023-08-20T04:34:11;14.47;;;8.43;;
7057;SDS011;3570;43.080;25.628;2023-08-20T04:36:55;15.20;;;9.47;;
7057;SDS011;3570;43.080;25.628;2023-08-20T04:39:39;17.63;;;8.73;;
7057;SDS011;3570;43.080;25.628;2023-08-20T04:42:24;15.50;;;9.00;;
7057;SDS011;3570;43.080;25.628;2023-08-20T04:45:08;12.40;;;8.13;;
7057;SDS011;3570;43.080;25.628;2023-08-20T04:47:52;11.37;;;7.50;;
7057;SDS011;3570;43.080;25.628;2023-08-20T04:50:36;14.33;;;7.53;;
7057;SDS011;3570;43.080;25.628;2023-08-20T04:53:20;14.57;;;7.70;;
7057;SDS011;3570;43.080;25.628;2023-08-20T04:56:04;10.47;;;6.60;;
7057;SDS011;3570;43.080;25.628;2023-08-20T04:58:48;9.70;;;7.30;;
7057;SDS011;3570;43.080;25.628;2023-08-20T05:01:32;11.23;;;6.57;;
7057;SDS011;3570;43.080;25.628;2023-08-20T05:04:16;9.77;;;6.87;;
7057;SDS011;3570;43.080;25.628;2023-08-20T05:07:00;7.80;;;6.43;;
7057;SDS011;3570;43.080;25.628;2023-08-20T05:09:44;8.47;;;6.87;;
7057;SDS011;3570;43.080;25.628;2023-08-20T05:12:28;9.43;;;6.67;;
7057;SDS011;3570;43.080;25.628;2023-08-20T05:15:12;7.73;;;6.43;;
7057;SDS011;3570;43.080;25.628;2023-08-20T05:17:56;8.90;;;6.80;;
7057;SDS011;3570;43.080;25.628;2023-08-20T05:20:40;7.90;;;6.20;;
7057;SDS011;3570;43.080;25.628;2023-08-20T05:23:25;7.37;;;5.60;;
7057;SDS011;3570;43.080;25.628;2023-08-20T05:26:09;11.23;;;7.57;;
7057;SDS011;3570;43.080;25.628;2023-08-20T05:28:53;8.53;;;6.60;;
7057;SDS011;3570;43.080;25.628;2023-08-20T05:31:37;9.33;;;6.17;;
7057;SDS011;3570;43.080;25.628;2023-08-20T05:34:22;8.47;;;6.00;;
7057;SDS011;3570;43.080;25.628;2023-08-20T05:37:05;8.37;;;6.37;;
7057;SDS011;3570;43.080;25.628;2023-08-20T05:39:49;8.20;;;5.90;;
7057;SDS011;3570;43.080;25.628;2023-08-20T05:42:33;7.63;;;6.83;;
7057;SDS011;3570;43.080;25.628;2023-08-20T05:45:17;11.23;;;7.73;;
7057;SDS011;3570;43.080;25.628;2023-08-20T05:48:02;9.80;;;7.07;;
7057;SDS011;3570;43.080;25.628;2023-08-20T05:50:46;9.77;;;7.43;;
7057;SDS011;3570;43.080;25.628;2023-08-20T05:53:30;13.87;;;9.77;;
7057;SDS011;3570;43.080;25.628;2023-08-20T05:56:14;12.97;;;9.00;;
7057;SDS011;3570;43.080;25.628;2023-08-20T05:58:58;10.20;;;8.10;;
7057;SDS011;3570;43.080;25.628;2023-08-20T06:01:42;12.17;;;9.30;;
7057;SDS011;3570;43.080;25.628;2023-08-20T06:04:27;10.27;;;8.43;;
7057;SDS011;3570;43.080;25.628;2023-08-20T06:07:11;10.47;;;9.33;;
7057;SDS011;3570;43.080;25.628;2023-08-20T06:09:55;13.07;;;9.07;;
7057;SDS011;3570;43.080;25.628;2023-08-20T06:12:40;9.90;;;7.73;;
7057;SDS011;3570;43.080;25.628;2023-08-20T06:15:23;12.87;;;9.30;;
7057;SDS011;3570;43.080;25.628;2023-08-20T06:18:08;11.00;;;8.83;;
7057;SDS011;3570;43.080;25.628;2023-08-20T06:20:52;11.80;;;8.67;;
7057;SDS011;3570;43.080;25.628;2023-08-20T06:23:36;10.40;;;9.03;;
7057;SDS011;3570;43.080;25.628;2023-08-20T06:26:20;11.20;;;10.03;;
7057;SDS011;3570;43.080;25.628;2023-08-20T06:29:04;12.00;;;9.00;;
7057;SDS011;3570;43.080;25.628;2023-08-20T06:31:48;12.87;;;11.00;;
7057;SDS011;3570;43.080;25.628;2023-08-20T06:34:33;14.27;;;11.40;;
7057;SDS011;3570;43.080;25.628;2023-08-20T06:37:18;11.63;;;9.20;;
7057;SDS011;3570;43.080;25.628;2023-08-20T06:40:02;13.70;;;10.10;;
7057;SDS011;3570;43.080;25.628;2023-08-20T06:42:46;11.07;;;9.30;;
7057;SDS011;3570;43.080;25.628;2023-08-20T06:45:30;12.70;;;9.33;;
7057;SDS011;3570;43.080;25.628;2023-08-20T06:48:14;14.20;;;9.13;;
7057;SDS011;3570;43.080;25.628;2023-08-20T06:51:07;10.97;;;9.23;;
7057;SDS011;3570;43.080;25.628;2023-08-20T06:53:55;15.40;;;11.70;;
7057;SDS011;3570;43.080;25.628;2023-08-20T06:56:39;14.40;;;11.47;;
7057;SDS011;3570;43.080;25.628;2023-08-20T06:59:23;15.60;;;11.27;;
7057;SDS011;3570;43.080;25.628;2023-08-20T07:02:07;17.30;;;12.13;;
7057;SDS011;3570;43.080;25.628;2023-08-20T07:04:51;16.93;;;13.33;;
7057;SDS011;3570;43.080;25.628;2023-08-20T07:07:35;17.57;;;12.83;;
7057;SDS011;3570;43.080;25.628;2023-08-20T07:10:20;17.50;;;13.57;;
7057;SDS011;3570;43.080;25.628;2023-08-20T07:13:04;21.90;;;11.77;;
7057;SDS011;3570;43.080;25.628;2023-08-20T07:15:48;17.17;;;13.60;;
7057;SDS011;3570;43.080;25.628;2023-08-20T07:18:32;13.47;;;10.57;;
7057;SDS011;3570;43.080;25.628;2023-08-20T07:21:17;16.13;;;12.70;;
7057;SDS011;3570;43.080;25.628;2023-08-20T07:24:01;18.47;;;12.77;;
7057;SDS011;3570;43.080;25.628;2023-08-20T07:26:45;17.43;;;11.77;;
7057;SDS011;3570;43.080;25.628;2023-08-20T07:29:29;17.10;;;13.00;;
7057;SDS011;3570;43.080;25.628;2023-08-20T07:32:14;15.80;;;11.63;;
7057;SDS011;3570;43.080;25.628;2023-08-20T07:34:57;17.17;;;13.70;;
7057;SDS011;3570;43.080;25.628;2023-08-20T07:37:42;14.97;;;11.50;;
7057;SDS011;3570;43.080;25.628;2023-08-20T07:40:25;12.30;;;10.53;;
7057;SDS011;3570;43.080;25.628;2023-08-20T07:43:11;17.67;;;12.10;;
7057;SDS011;3570;43.080;25.628;2023-08-20T07:45:55;17.42;;;12.63;;
7057;SDS011;3570;43.080;25.628;2023-08-20T07:48:39;12.43;;;9.57;;
7057;SDS011;3570;43.080;25.628;2023-08-20T07:51:23;17.17;;;11.88;;
7057;SDS011;3570;43.080;25.628;2023-08-20T07:54:07;12.53;;;9.70;;
7057;SDS011;3570;43.080;25.628;2023-08-20T07:56:51;12.45;;;11.10;;
7057;SDS011;3570;43.080;25.628;2023-08-20T07:59:35;13.20;;;9.80;;
7057;SDS011;3570;43.080;25.628;2023-08-20T08:02:19;11.45;;;9.13;;
7057;SDS011;3570;43.080;25.628;2023-08-20T08:05:04;12.88;;;9.40;;
7057;SDS011;3570;43.080;25.628;2023-08-20T08:07:49;11.48;;;7.78;;
7057;SDS011;3570;43.080;25.628;2023-08-20T08:10:33;11.15;;;7.70;;
7057;SDS011;3570;43.080;25.628;2023-08-20T08:13:19;7.82;;;7.03;;
7057;SDS011;3570;43.080;25.628;2023-08-20T08:16:04;10.57;;;7.55;;
7057;SDS011;3570;43.080;25.628;2023-08-20T08:18:48;10.05;;;6.30;;
7057;SDS011;3570;43.080;25.628;2023-08-20T08:21:32;7.57;;;6.60;;
7057;SDS011;3570;43.080;25.628;2023-08-20T08:24:16;6.43;;;5.35;;
7057;SDS011;3570;43.080;25.628;2023-08-20T08:27:00;8.18;;;5.28;;
7057;SDS011;3570;43.080;25.628;2023-08-20T08:29:44;4.90;;;4.28;;
7057;SDS011;3570;43.080;25.628;2023-08-20T08:32:28;7.28;;;5.18;;
7057;SDS011;3570;43.080;25.628;2023-08-20T08:35:13;5.78;;;4.88;;
7057;SDS011;3570;43.080;25.628;2023-08-20T08:37:56;5.70;;;4.80;;
7057;SDS011;3570;43.080;25.628;2023-08-20T08:40:41;8.35;;;4.88;;
7057;SDS011;3570;43.080;25.628;2023-08-20T08:43:26;6.88;;;4.95;;
7057;SDS011;3570;43.080;25.628;2023-08-20T08:46:12;6.53;;;4.95;;
7057;SDS011;3570;43.080;25.628;2023-08-20T08:49:00;6.63;;;5.50;;
7057;SDS011;3570;43.080;25.628;2023-08-20T08:51:44;5.05;;;4.55;;
7057;SDS011;3570;43.080;25.628;2023-08-20T08:54:29;6.80;;;4.95;;
7057;SDS011;3570;43.080;25.628;2023-08-20T08:57:14;5.53;;;4.63;;
7057;SDS011;3570;43.080;25.628;2023-08-20T08:59:59;5.63;;;4.95;;
7057;SDS011;3570;43.080;25.628;2023-08-20T09:02:43;5.05;;;4.47;;
7057;SDS011;3570;43.080;25.628;2023-08-20T09:05:27;5.15;;;4.03;;
7057;SDS011;3570;43.080;25.628;2023-08-20T09:08:13;5.25;;;4.75;;
7057;SDS011;3570;43.080;25.628;2023-08-20T09:11:03;4.70;;;4.30;;
7057;SDS011;3570;43.080;25.628;2023-08-20T09:13:47;5.10;;;4.20;;
7057;SDS011;3570;43.080;25.628;2023-08-20T09:16:31;5.30;;;4.40;;
7057;SDS011;3570;43.080;25.628;2023-08-20T09:19:15;5.53;;;4.03;;
7057;SDS011;3570;43.080;25.628;2023-08-20T09:21:59;4.38;;;3.97;;
7057;SDS011;3570;43.080;25.628;2023-08-20T09:24:46;4.93;;;4.13;;
7057;SDS011;3570;43.080;25.628;2023-08-20T09:27:38;5.35;;;4.07;;
7057;SDS011;3570;43.080;25.628;2023-08-20T09:30:24;4.90;;;4.28;;
7057;SDS011;3570;43.080;25.628;2023-08-20T09:33:12;4.82;;;3.90;;
7057;SDS011;3570;43.080;25.628;2023-08-20T09:35:59;4.35;;;3.95;;
7057;SDS011;3570;43.080;25.628;2023-08-20T09:38:43;5.47;;;3.90;;
7057;SDS011;3570;43.080;25.628;2023-08-20T09:41:27;3.40;;;3.10;;
7057;SDS011;3570;43.080;25.628;2023-08-20T09:44:12;4.63;;;4.22;;
7057;SDS011;3570;43.080;25.628;2023-08-20T09:46:59;4.43;;;4.03;;
7057;SDS011;3570;43.080;25.628;2023-08-20T09:49:45;4.13;;;3.72;;
7057;SDS011;3570;43.080;25.628;2023-08-20T09:52:39;4.45;;;3.78;;
7057;SDS011;3570;43.080;25.628;2023-08-20T09:55:32;4.72;;;3.83;;
7057;SDS011;3570;43.080;25.628;2023-08-20T09:58:20;6.78;;;4.20;;
7057;SDS011;3570;43.080;25.628;2023-08-20T10:01:08;4.50;;;3.60;;
7057;SDS011;3570;43.080;25.628;2023-08-20T10:03:53;4.57;;;4.05;;
7057;SDS011;3570;43.080;25.628;2023-08-20T10:06:37;5.93;;;3.88;;
7057;SDS011;3570;43.080;25.628;2023-08-20T10:09:23;4.85;;;3.95;;
7057;SDS011;3570;43.080;25.628;2023-08-20T10:12:08;4.60;;;4.15;;
7057;SDS011;3570;43.080;25.628;2023-08-20T10:14:52;6.78;;;4.03;;
7057;SDS011;3570;43.080;25.628;2023-08-20T10:17:37;5.65;;;5.15;;
7057;SDS011;3570;43.080;25.628;2023-08-20T10:20:22;4.38;;;3.85;;
7057;SDS011;3570;43.080;25.628;2023-08-20T10:23:06;7.20;;;4.13;;
7057;SDS011;3570;43.080;25.628;2023-08-20T10:25:54;4.88;;;3.88;;
7057;SDS011;3570;43.080;25.628;2023-08-20T10:28:39;4.57;;;4.05;;
7057;SDS011;3570;43.080;25.628;2023-08-20T10:31:25;4.72;;;4.05;;
7057;SDS011;3570;43.080;25.628;2023-08-20T10:34:09;4.20;;;3.80;;
7057;SDS011;3570;43.080;25.628;2023-08-20T10:36:53;5.13;;;4.32;;
7057;SDS011;3570;43.080;25.628;2023-08-20T10:39:37;5.25;;;4.35;;
7057;SDS011;3570;43.080;25.628;2023-08-20T10:42:25;4.53;;;4.13;;
7057;SDS011;3570;43.080;25.628;2023-08-20T10:45:10;6.22;;;4.35;;
7057;SDS011;3570;43.080;25.628;2023-08-20T10:47:55;12.40;;;4.60;;
7057;SDS011;3570;43.080;25.628;2023-08-20T10:50:41;4.88;;;4.35;;
7057;SDS011;3570;43.080;25.628;2023-08-20T10:53:25;4.93;;;4.05;;
7057;SDS011;3570;43.080;25.628;2023-08-20T10:56:13;4.85;;;3.92;;
7057;SDS011;3570;43.080;25.628;2023-08-20T10:59:05;4.78;;;4.38;;
7057;SDS011;3570;43.080;25.628;2023-08-20T11:01:51;4.03;;;3.72;;
7057;SDS011;3570;43.080;25.628;2023-08-20T11:04:39;4.97;;;4.13;;
7057;SDS011;3570;43.080;25.628;2023-08-20T11:07:24;4.65;;;4.22;;
7057;SDS011;3570;43.080;25.628;2023-08-20T11:10:10;4.07;;;3.63;;
7057;SDS011;3570;43.080;25.628;2023-08-20T11:12:56;4.35;;;3.92;;
7057;SDS011;3570;43.080;25.628;2023-08-20T11:15:40;4.65;;;4.18;;
7057;SDS011;3570;43.080;25.628;2023-08-20T11:18:24;4.55;;;4.13;;
7057;SDS011;3570;43.080;25.628;2023-08-20T11:21:09;5.05;;;4.15;;
7057;SDS011;3570;43.080;25.628;2023-08-20T11:23:53;4.22;;;3.83;;
7057;SDS011;3570;43.080;25.628;2023-08-20T11:26:39;4.30;;;3.90;;
7057;SDS011;3570;43.080;25.628;2023-08-20T11:29:25;4.60;;;3.67;;
7057;SDS011;3570;43.080;25.628;2023-08-20T11:32:10;4.50;;;4.10;;
7057;SDS011;3570;43.080;25.628;2023-08-20T11:34:54;4.28;;;3.88;;
7057;SDS011;3570;43.080;25.628;2023-08-20T11:37:39;4.20;;;3.78;;
7057;SDS011;3570;43.080;25.628;2023-08-20T11:40:24;4.25;;;3.85;;
7057;SDS011;3570;43.080;25.628;2023-08-20T11:43:08;4.78;;;3.50;;
7057;SDS011;3570;43.080;25.628;2023-08-20T11:45:52;4.05;;;3.65;;
7057;SDS011;3570;43.080;25.628;2023-08-20T11:48:37;4.00;;;3.70;;
7057;SDS011;3570;43.080;25.628;2023-08-20T11:51:22;4.22;;;3.88;;
7057;SDS011;3570;43.080;25.628;2023-08-20T11:54:13;4.70;;;4.30;;
7057;SDS011;3570;43.080;25.628;2023-08-20T11:57:02;3.70;;;3.40;;
7057;SDS011;3570;43.080;25.628;2023-08-20T11:59:47;4.80;;;4.00;;
7057;SDS011;3570;43.080;25.628;2023-08-20T12:02:31;4.30;;;3.90;;
7057;SDS011;3570;43.080;25.628;2023-08-20T12:05:18;4.30;;;3.90;;
7057;SDS011;3570;43.080;25.628;2023-08-20T12:08:03;4.68;;;3.70;;
7057;SDS011;3570;43.080;25.628;2023-08-20T12:10:47;4.50;;;4.10;;
7057;SDS011;3570;43.080;25.628;2023-08-20T12:13:31;4.38;;;3.88;;
7057;SDS011;3570;43.080;25.628;2023-08-20T12:16:15;5.40;;;3.83;;
7057;SDS011;3570;43.080;25.628;2023-08-20T12:18:59;5.47;;;3.92;;
7057;SDS011;3570;43.080;25.628;2023-08-20T12:21:43;4.10;;;3.75;;
7057;SDS011;3570;43.080;25.628;2023-08-20T12:24:28;4.40;;;3.83;;
7057;SDS011;3570;43.080;25.628;2023-08-20T12:27:12;4.00;;;3.53;;
7057;SDS011;3570;43.080;25.628;2023-08-20T12:29:56;4.55;;;3.95;;
7057;SDS011;3570;43.080;25.628;2023-08-20T12:32:39;4.28;;;3.92;;
7057;SDS011;3570;43.080;25.628;2023-08-20T12:35:23;4.97;;;4.13;;
7057;SDS011;3570;43.080;25.628;2023-08-20T12:38:07;5.22;;;3.78;;
7057;SDS011;3570;43.080;25.628;2023-08-20T12:40:51;3.97;;;3.47;;
7057;SDS011;3570;43.080;25.628;2023-08-20T12:43:35;3.65;;;3.35;;
7057;SDS011;3570;43.080;25.628;2023-08-20T12:46:19;4.40;;;3.58;;
7057;SDS011;3570;43.080;25.628;2023-08-20T12:49:04;4.20;;;3.80;;
7057;SDS011;3570;43.080;25.628;2023-08-20T12:51:48;4.25;;;3.85;;
7057;SDS011;3570;43.080;25.628;2023-08-20T12:54:31;4.43;;;4.03;;
7057;SDS011;3570;43.080;25.628;2023-08-20T12:57:16;4.95;;;4.53;;
7057;SDS011;3570;43.080;25.628;2023-08-20T13:00:00;4.00;;;3.70;;
7057;SDS011;3570;43.080;25.628;2023-08-20T13:02:44;4.07;;;3.67;;
7057;SDS011;3570;43.080;25.628;2023-08-20T13:05:28;5.05;;;3.92;;
7057;SDS011;3570;43.080;25.628;2023-08-20T13:08:13;4.05;;;3.70;;
7057;SDS011;3570;43.080;25.628;2023-08-20T13:10:58;3.88;;;3.50;;
7057;SDS011;3570;43.080;25.628;2023-08-20T13:13:43;3.88;;;3.58;;
7057;SDS011;3570;43.080;25.628;2023-08-20T13:16:27;4.32;;;3.80;;
7057;SDS011;3570;43.080;25.628;2023-08-20T13:19:12;4.43;;;3.60;;
7057;SDS011;3570;43.080;25.628;2023-08-20T13:21:57;4.05;;;3.75;;
7057;SDS011;3570;43.080;25.628;2023-08-20T13:24:41;5.30;;;4.28;;
7057;SDS011;3570;43.080;25.628;2023-08-20T13:27:25;4.20;;;3.80;;
7057;SDS011;3570;43.080;25.628;2023-08-20T13:30:10;4.30;;;3.88;;
7057;SDS011;3570;43.080;25.628;2023-08-20T13:32:54;4.07;;;3.50;;
7057;SDS011;3570;43.080;25.628;2023-08-20T13:35:38;4.03;;;3.63;;
7057;SDS011;3570;43.080;25.628;2023-08-20T13:38:24;3.42;;;3.13;;
7057;SDS011;3570;43.080;25.628;2023-08-20T13:41:09;3.90;;;3.45;;
7057;SDS011;3570;43.080;25.628;2023-08-20T13:43:53;5.18;;;3.70;;
7057;SDS011;3570;43.080;25.628;2023-08-20T13:46:37;4.90;;;3.67;;
7057;SDS011;3570;43.080;25.628;2023-08-20T13:49:21;3.78;;;3.47;;
7057;SDS011;3570;43.080;25.628;2023-08-20T13:52:06;4.50;;;4.10;;
7057;SDS011;3570;43.080;25.628;2023-08-20T13:54:50;3.90;;;3.60;;
7057;SDS011;3570;43.080;25.628;2023-08-20T13:57:34;3.88;;;3.58;;
7057;SDS011;3570;43.080;25.628;2023-08-20T14:00:18;5.85;;;4.30;;
7057;SDS011;3570;43.080;25.628;2023-08-20T14:03:02;7.90;;;3.47;;
7057;SDS011;3570;43.080;25.628;2023-08-20T14:05:47;4.20;;;3.88;;
7057;SDS011;3570;43.080;25.628;2023-08-20T14:08:31;3.90;;;3.60;;
7057;SDS011;3570;43.080;25.628;2023-08-20T14:11:16;4.38;;;3.90;;
7057;SDS011;3570;43.080;25.628;2023-08-20T14:14:00;4.32;;;3.88;;
7057;SDS011;3570;43.080;25.628;2023-08-20T14:16:44;5.15;;;4.25;;
7057;SDS011;3570;43.080;25.628;2023-08-20T14:19:29;4.70;;;3.85;;
7057;SDS011;3570;43.080;25.628;2023-08-20T14:22:13;3.85;;;3.45;;
7057;SDS011;3570;43.080;25.628;2023-08-20T14:24:57;4.07;;;3.67;;
7057;SDS011;3570;43.080;25.628;2023-08-20T14:27:41;4.30;;;3.90;;
7057;SDS011;3570;43.080;25.628;2023-08-20T14:30:25;4.07;;;3.67;;
7057;SDS011;3570;43.080;25.628;2023-08-20T14:33:10;3.58;;;3.28;;
7057;SDS011;3570;43.080;25.628;2023-08-20T14:35:54;4.13;;;3.72;;
7057;SDS011;3570;43.080;25.628;2023-08-20T14:38:38;4.35;;;3.95;;
7057;SDS011;3570;43.080;25.628;2023-08-20T14:41:22;4.55;;;3.95;;
7057;SDS011;3570;43.080;25.628;2023-08-20T14:44:06;4.30;;;3.90;;
7057;SDS011;3570;43.080;25.628;2023-08-20T14:46:50;3.88;;;3.58;;
7057;SDS011;3570;43.080;25.628;2023-08-20T14:49:34;4.18;;;3.78;;
7057;SDS011;3570;43.080;25.628;2023-08-20T14:52:18;4.13;;;3.42;;
7057;SDS011;3570;43.080;25.628;2023-08-20T14:55:02;4.18;;;3.72;;
7057;SDS011;3570;43.080;25.628;2023-08-20T14:57:48;4.32;;;3.92;;
7057;SDS011;3570;43.080;25.628;2023-08-20T15:00:32;3.80;;;3.50;;
7057;SDS011;3570;43.080;25.628;2023-08-20T15:03:16;4.85;;;3.47;;
7057;SDS011;3570;43.080;25.628;2023-08-20T15:06:00;3.75;;;3.40;;
7057;SDS011;3570;43.080;25.628;2023-08-20T15:08:44;4.30;;;3.90;;
7057;SDS011;3570;43.080;25.628;2023-08-20T15:11:28;4.53;;;4.13;;
7057;SDS011;3570;43.080;25.628;2023-08-20T15:14:13;4.88;;;4.32;;
7057;SDS011;3570;43.080;25.628;2023-08-20T15:16:57;5.05;;;4.30;;
7057;SDS011;3570;43.080;25.628;2023-08-20T15:19:41;4.47;;;3.83;;
7057;SDS011;3570;43.080;25.628;2023-08-20T15:22:25;5.15;;;3.72;;
7057;SDS011;3570;43.080;25.628;2023-08-20T15:25:09;4.15;;;3.72;;
7057;SDS011;3570;43.080;25.628;2023-08-20T15:27:54;4.43;;;3.97;;
7057;SDS011;3570;43.080;25.628;2023-08-20T15:30:38;4.10;;;3.70;;
7057;SDS011;3570;43.080;25.628;2023-08-20T15:33:22;4.10;;;3.75;;
7057;SDS011;3570;43.080;25.628;2023-08-20T15:36:06;4.75;;;3.90;;
7057;SDS011;3570;43.080;25.628;2023-08-20T15:38:50;4.55;;;4.15;;
7057;SDS011;3570;43.080;25.628;2023-08-20T15:41:34;5.07;;;3.70;;
7057;SDS011;3570;43.080;25.628;2023-08-20T15:44:18;4.90;;;4.40;;
7057;SDS011;3570;43.080;25.628;2023-08-20T15:47:02;5.10;;;4.53;;
7057;SDS011;3570;43.080;25.628;2023-08-20T15:49:46;5.30;;;4.25;;
7057;SDS011;3570;43.080;25.628;2023-08-20T15:52:30;4.53;;;4.13;;
7057;SDS011;3570;43.080;25.628;2023-08-20T15:55:14;4.55;;;4.07;;
7057;SDS011;3570;43.080;25.628;2023-08-20T15:57:59;4.97;;;4.38;;
7057;SDS011;3570;43.080;25.628;2023-08-20T16:00:43;6.07;;;4.40;;
7057;SDS011;3570;43.080;25.628;2023-08-20T16:03:27;4.80;;;4.40;;
7057;SDS011;3570;43.080;25.628;2023-08-20T16:06:12;4.20;;;3.80;;
7057;SDS011;3570;43.080;25.628;2023-08-20T16:08:57;4.45;;;4.05;;
7057;SDS011;3570;43.080;25.628;2023-08-20T16:11:41;7.00;;;4.20;;
7057;SDS011;3570;43.080;25.628;2023-08-20T16:14:25;8.07;;;4.18;;
7057;SDS011;3570;43.080;25.628;2023-08-20T16:17:09;4.82;;;4.32;;
7057;SDS011;3570;43.080;25.628;2023-08-20T16:19:53;7.38;;;4.53;;
7057;SDS011;3570;43.080;25.628;2023-08-20T16:22:38;6.05;;;4.72;;
7057;SDS011;3570;43.080;25.628;2023-08-20T16:25:22;5.75;;;4.53;;
7057;SDS011;3570;43.080;25.628;2023-08-20T16:28:07;7.18;;;4.45;;
7057;SDS011;3570;43.080;25.628;2023-08-20T16:30:54;4.90;;;4.40;;
7057;SDS011;3570;43.080;25.628;2023-08-20T16:33:38;7.05;;;4.70;;
7057;SDS011;3570;43.080;25.628;2023-08-20T16:36:22;4.78;;;4.28;;
7057;SDS011;3570;43.080;25.628;2023-08-20T16:39:07;9.80;;;4.82;;
7057;SDS011;3570;43.080;25.628;2023-08-20T16:41:51;6.38;;;4.50;;
7057;SDS011;3570;43.080;25.628;2023-08-20T16:44:36;6.72;;;4.10;;
7057;SDS011;3570;43.080;25.628;2023-08-20T16:47:20;7.50;;;3.90;;
7057;SDS011;3570;43.080;25.628;2023-08-20T16:52:52;4.65;;;3.95;;